Time;durP1;ratioP1;P1;durP2;ratioP2;P2;SDS_P1;SDS_P2;PMS_P1;PMS_P2;Temp;Humidity;BMP_temperature;BMP_pressure;BME280_temperature;BME280_humidity;BME280_pressure;Samples;Min_cycle;Max_cycle;Signal;HPM_P1;HPM_P2
2022/01/29 00:01:59;;;;;;;;;15.75;14.75;;;;;8.06;69.25;102920.03;5054449;28;45378;-58
2022/01/29 00:04:24;;;;;;;;;23.75;15.50;;;;;7.83;69.39;102875.69;5053125;28;45223;-56
2022/01/29 00:06:50;;;;;;;;;20.00;16.00;;;;;8.07;69.36;102909.97;5054265;28;45523;-55
2022/01/29 00:09:16;;;;;;;;;19.25;14.50;;;;;7.94;69.31;102897.44;5053005;28;45373;-52
2022/01/29 00:11:42;;;;;;;;;18.75;16.75;;;;;7.93;69.29;102892.09;5052911;28;45319;-52
2022/01/29 00:14:07;;;;;;;;;23.00;19.80;;;;;8.08;69.27;102909.84;5053593;28;45706;-53
2022/01/29 00:16:33;;;;;;;;;22.75;14.75;;;;;7.76;69.24;102860.84;5053882;28;45452;-53
2022/01/29 00:18:58;;;;;;;;;15.25;10.75;;;;;7.94;68.73;102877.41;5054174;28;45368;-54
2022/01/29 00:21:24;;;;;;;;;15.50;12.50;;;;;8.09;68.63;102899.75;5054308;28;45380;-55
2022/01/29 00:23:49;;;;;;;;;15.50;13.25;;;;;8.06;69.02;102891.84;5088993;27;45681;-53
2022/01/29 00:26:19;;;;;;;;;18.25;18.25;;;;;8.04;69.07;102886.50;5089934;27;46571;-54
2022/01/29 00:28:45;;;;;;;;;18.00;14.60;;;;;8.14;69.31;102902.94;5040298;28;45327;-55
2022/01/29 00:31:11;;;;;;;;;15.75;13.00;;;;;8.03;68.72;102872.97;5039771;28;45440;-51
2022/01/29 00:33:38;;;;;;;;;19.75;13.50;;;;;8.11;68.77;102878.63;5057847;28;45523;-57
2022/01/29 00:36:04;;;;;;;;;19.60;15.00;;;;;8.09;68.47;102876.00;5056946;28;46323;-50
2022/01/29 00:38:30;;;;;;;;;17.40;15.40;;;;;8.10;68.40;102876.88;5057054;28;45498;-55
2022/01/29 00:40:55;;;;;;;;;12.00;12.00;;;;;8.08;68.83;102863.34;5055831;28;45486;-55
2022/01/29 00:43:21;;;;;;;;;17.75;16.50;;;;;7.91;68.32;102843.06;5090117;27;45594;-55
2022/01/29 00:45:46;;;;;;;;;14.50;12.50;;;;;8.00;68.89;102865.91;5056789;28;45844;-54
2022/01/29 00:48:12;;;;;;;;;16.50;15.75;;;;;7.95;69.19;102849.94;5057100;28;45269;-53
2022/01/29 00:50:37;;;;;;;;;16.25;12.75;;;;;8.04;69.19;102870.09;5057053;28;45334;-59
2022/01/29 00:53:03;;;;;;;;;18.25;15.25;;;;;8.07;68.72;102858.03;5089834;27;45229;-52
2022/01/29 00:55:28;;;;;;;;;14.00;11.25;;;;;8.08;68.59;102854.28;5056739;28;45639;-51
2022/01/29 00:57:54;;;;;;;;;16.75;15.50;;;;;8.03;68.58;102856.56;5056664;28;45413;-54
2022/01/29 01:00:19;;;;;;;;;14.25;11.25;;;;;8.03;69.17;102857.44;5056986;28;45466;-53
2022/01/29 01:02:45;;;;;;;;;15.00;13.75;;;;;7.97;69.05;102853.41;5057431;28;45724;-55
2022/01/29 01:05:11;;;;;;;;;14.25;12.00;;;;;7.93;69.79;102848.34;5055562;28;45384;-54
2022/01/29 01:07:37;;;;;;;;;18.75;15.25;;;;;7.98;69.33;102841.47;5038746;28;45329;-51
2022/01/29 01:10:04;;;;;;;;;16.80;16.00;;;;;7.96;70.16;102840.72;5056942;28;45399;-53
2022/01/29 01:12:33;;;;;;;;;20.00;16.00;;;;;7.98;69.82;102836.00;5055466;28;45305;-51
2022/01/29 01:14:58;;;;;;;;;18.60;17.00;;;;;7.96;70.34;102837.16;5037046;28;46525;-51
2022/01/29 01:17:24;;;;;;;;;21.00;18.75;;;;;7.93;70.62;102835.56;5053248;28;45346;-51
2022/01/29 01:19:49;;;;;;;;;19.50;19.50;;;;;7.89;71.22;102839.56;5055701;28;45410;-53
2022/01/29 01:22:16;;;;;;;;;17.75;15.75;;;;;7.90;71.50;102835.81;5055803;28;45345;-55
2022/01/29 01:24:41;;;;;;;;;18.80;15.40;;;;;7.90;71.65;102834.97;5055029;28;46226;-56
2022/01/29 01:27:07;;;;;;;;;16.00;13.75;;;;;7.89;71.93;102839.56;5055118;28;46378;-52
2022/01/29 01:29:33;;;;;;;;;19.75;18.75;;;;;7.92;71.81;102842.03;5056862;28;45472;-51
2022/01/29 01:31:58;;;;;;;;;22.00;16.00;;;;;7.92;71.64;102839.31;5056350;28;45808;-54
2022/01/29 01:34:26;;;;;;;;;15.50;14.50;;;;;7.92;71.98;102841.16;5055926;28;45979;-50
2022/01/29 01:36:57;;;;;;;;;17.60;16.00;;;;;7.91;71.87;102834.84;5055022;28;45280;-50
2022/01/29 01:39:28;;;;;;;;;16.80;13.80;;;;;7.92;72.09;102838.44;5056479;28;45419;-49
2022/01/29 01:41:59;;;;;;;;;16.00;14.80;;;;;7.91;72.36;102834.84;5056226;28;45282;-53
2022/01/29 01:44:24;;;;;;;;;16.20;14.80;;;;;7.94;72.25;102842.75;5056124;28;45792;-52
2022/01/29 01:46:50;;;;;;;;;12.75;11.00;;;;;7.76;72.65;102811.66;5056153;28;45454;-53
2022/01/29 01:49:16;;;;;;;;;11.50;10.75;;;;;7.97;72.33;102837.00;5056343;28;45376;-52
2022/01/29 01:51:42;;;;;;;;;15.00;14.25;;;;;7.92;72.89;102830.22;5054515;28;45393;-52
2022/01/29 01:54:08;;;;;;;;;18.60;15.00;;;;;7.92;73.15;102836.56;5055580;28;45396;-51
2022/01/29 01:56:33;;;;;;;;;13.75;12.00;;;;;7.90;73.03;102835.81;5055611;28;45278;-58
2022/01/29 01:58:59;;;;;;;;;17.75;14.50;;;;;7.89;73.08;102833.25;5055893;28;45706;-53
2022/01/29 02:01:25;;;;;;;;;16.75;15.00;;;;;7.90;73.18;102827.63;5055971;28;45375;-53
2022/01/29 02:03:50;;;;;;;;;12.00;12.00;;;;;7.92;73.26;102833.84;5055801;28;45415;-53
2022/01/29 02:06:16;;;;;;;;;20.00;15.25;;;;;7.90;73.22;102815.84;5055581;28;45340;-52
2022/01/29 02:08:42;;;;;;;;;15.25;14.75;;;;;7.91;72.93;102814.84;5055740;28;45642;-54
2022/01/29 02:11:09;;;;;;;;;14.00;11.75;;;;;7.91;73.30;102815.72;5055863;28;45376;-52
2022/01/29 02:13:34;;;;;;;;;14.40;12.00;;;;;7.94;73.14;102812.66;5054005;28;45480;-56
2022/01/29 02:16:02;;;;;;;;;19.25;13.50;;;;;7.90;72.76;102808.47;5055683;28;45475;-53
2022/01/29 02:18:27;;;;;;;;;21.80;17.80;;;;;7.89;73.69;102803.19;5047319;28;45733;-51
2022/01/29 02:20:53;;;;;;;;;20.25;14.50;;;;;7.90;73.57;102807.63;5055050;28;45323;-49
2022/01/29 02:23:18;;;;;;;;;15.75;15.75;;;;;7.90;73.04;102805.75;5054211;28;46729;-49
2022/01/29 02:25:48;;;;;;;;;17.25;15.00;;;;;7.67;73.37;102765.03;5054440;28;45354;-55
2022/01/29 02:28:20;;;;;;;;;17.80;13.80;;;;;7.89;73.30;102797.72;5055562;28;45462;-52
2022/01/29 02:30:51;;;;;;;;;11.00;7.00;;;;;7.90;73.35;102800.28;5055622;28;45544;-54
2022/01/29 02:33:17;;;;;;;;;15.60;13.60;;;;;7.43;73.73;102722.56;5019826;27;46820;-53
2022/01/29 02:35:45;;;;;;;;;22.60;16.00;;;;;7.91;73.83;102792.97;5054335;28;45379;-52
2022/01/29 02:38:11;;;;;;;;;15.40;15.40;;;;;7.93;73.35;102782.72;5087802;27;45409;-51
2022/01/29 02:40:41;;;;;;;;;15.60;14.80;;;;;7.84;73.67;102754.38;5037483;28;45276;-49
2022/01/29 02:43:18;;;;;;;;;17.80;10.60;;;;;7.93;73.39;102769.94;5053835;28;45966;-53
2022/01/29 02:45:44;;;;;;;;;16.80;11.60;;;;;7.93;73.90;102767.19;5048557;28;45523;-54
2022/01/29 02:48:10;;;;;;;;;9.60;9.40;;;;;7.80;74.08;102751.06;5034251;28;45386;-55
2022/01/29 02:50:36;;;;;;;;;14.20;13.20;;;;;7.87;73.76;102765.03;5034876;28;45516;-53
2022/01/29 02:53:02;;;;;;;;;11.00;11.00;;;;;7.88;73.51;102747.63;5035160;28;46433;-52
2022/01/29 02:55:29;;;;;;;;;14.50;12.00;;;;;7.88;73.61;102750.34;5033342;28;45807;-53
2022/01/29 02:57:55;;;;;;;;;11.00;10.00;;;;;7.64;73.93;102704.31;5033759;28;45428;-52
2022/01/29 03:00:21;;;;;;;;;16.20;11.20;;;;;7.85;73.48;102737.00;5035456;28;45515;-51
2022/01/29 03:02:46;;;;;;;;;11.25;11.25;;;;;7.80;74.00;102723.72;5034350;28;45704;-52
2022/01/29 03:05:12;;;;;;;;;9.50;9.50;;;;;7.80;73.96;102720.16;5000324;28;45453;-52
2022/01/29 03:07:38;;;;;;;;;11.00;10.50;;;;;7.81;74.33;102728.22;5034686;28;45406;-51
2022/01/29 03:10:05;;;;;;;;;16.00;13.80;;;;;7.46;74.21;102672.25;4956629;28;46083;-50
2022/01/29 03:12:30;;;;;;;;;11.20;11.00;;;;;7.81;74.17;102730.06;5053842;28;46189;-57
2022/01/29 03:14:56;;;;;;;;;10.75;9.00;;;;;7.82;74.33;102727.19;5054789;28;45410;-52
2022/01/29 03:17:22;;;;;;;;;3.00;3.00;;;;;7.82;74.95;102720.84;5037633;28;45328;-50
2022/01/29 03:19:47;;;;;;;;;11.25;11.25;;;;;7.81;74.29;102720.00;5053052;28;45609;-55
2022/01/29 03:22:12;;;;;;;;;10.25;9.75;;;;;7.81;74.49;102720.00;5051832;28;46474;-56
2022/01/29 03:24:38;;;;;;;;;11.00;11.00;;;;;7.77;74.72;102713.09;5055004;28;45565;-50
2022/01/29 03:27:04;;;;;;;;;14.00;12.50;;;;;7.78;74.19;102730.38;5054599;28;45606;-54
2022/01/29 03:29:29;;;;;;;;;10.50;9.50;;;;;7.53;74.75;102683.47;5055103;28;45531;-53
2022/01/29 03:31:55;;;;;;;;;12.00;11.50;;;;;7.78;74.52;102712.09;5053232;28;46299;-52
2022/01/29 03:34:20;;;;;;;;;11.50;11.50;;;;;7.75;75.16;102715.13;5053407;28;45442;-51
2022/01/29 03:36:46;;;;;;;;;11.25;10.00;;;;;7.73;75.06;102712.53;5053349;28;45506;-54
2022/01/29 03:39:11;;;;;;;;;13.25;10.00;;;;;7.64;75.62;102721.59;5054986;28;45294;-55
2022/01/29 03:41:37;;;;;;;;;12.50;10.75;;;;;7.66;75.96;102727.78;5054644;28;45447;-51
2022/01/29 03:44:06;;;;;;;;;15.80;14.40;;;;;7.67;75.83;102725.88;5054444;28;45385;-53
2022/01/29 03:46:32;;;;;;;;;15.00;10.60;;;;;7.63;76.14;102722.59;5044877;28;45264;-53
2022/01/29 03:48:58;;;;;;;;;12.40;12.40;;;;;7.60;75.72;102718.25;5034726;28;45396;-52
2022/01/29 03:51:24;;;;;;;;;11.00;7.40;;;;;7.71;75.74;102724.59;5033694;28;45601;-52
2022/01/29 03:53:52;;;;;;;;;14.25;11.25;;;;;7.72;76.03;102724.47;5032762;28;45335;-53
2022/01/29 03:56:18;;;;;;;;;11.80;10.60;;;;;7.75;75.90;102714.25;5033907;28;45517;-53
2022/01/29 03:58:44;;;;;;;;;13.20;11.00;;;;;7.75;75.98;102711.50;5036826;28;45582;-53
2022/01/29 04:01:10;;;;;;;;;11.50;11.50;;;;;7.76;75.71;102715.97;5035889;28;45440;-53
2022/01/29 04:03:35;;;;;;;;;11.75;11.00;;;;;7.75;75.55;102709.66;5037960;28;45299;-58
2022/01/29 04:06:01;;;;;;;;;13.00;10.50;;;;;7.78;75.79;102716.72;5038043;28;45269;-54
2022/01/29 04:08:27;;;;;;;;;15.25;14.00;;;;;7.76;75.64;102707.75;5037410;28;45488;-48
2022/01/29 04:10:53;;;;;;;;;14.50;14.25;;;;;7.80;75.58;102712.78;5037303;28;46358;-53
2022/01/29 04:13:23;;;;;;;;;14.00;11.00;;;;;7.79;75.61;102715.69;5036975;28;45463;-53
2022/01/29 04:15:48;;;;;;;;;13.60;12.40;;;;;7.80;75.61;102714.69;5037493;28;45320;-54
2022/01/29 04:18:14;;;;;;;;;13.75;13.50;;;;;7.83;75.99;102707.06;5037499;28;45385;-51
2022/01/29 04:20:40;;;;;;;;;11.50;10.00;;;;;7.84;75.22;102702.44;5035953;28;45331;-51
2022/01/29 04:23:06;;;;;;;;;10.50;10.50;;;;;7.79;75.97;102700.13;5037042;28;45183;-52
2022/01/29 04:25:32;;;;;;;;;20.60;13.40;;;;;7.87;75.88;102707.63;5035806;28;45318;-52
2022/01/29 04:27:58;;;;;;;;;15.75;13.50;;;;;7.79;76.08;102688.34;5035980;28;45715;-51
2022/01/29 04:30:29;;;;;;;;;14.75;11.50;;;;;7.66;75.78;102664.91;5036943;28;46347;-57
2022/01/29 04:33:14;;;;;;;;;16.60;11.40;;;;;7.81;75.57;102697.25;5037013;28;45345;-50
2022/01/29 04:35:39;;;;;;;;;15.20;10.20;;;;;7.88;75.94;102705.75;5037123;28;45352;-55
2022/01/29 04:38:05;;;;;;;;;11.25;11.25;;;;;7.88;76.70;102709.34;5037166;28;45344;-53
2022/01/29 04:40:30;;;;;;;;;12.00;10.00;;;;;7.85;76.22;102705.03;5036617;28;46680;-53
2022/01/29 04:42:56;;;;;;;;;11.50;11.25;;;;;7.76;76.23;102684.03;5037099;28;45389;-52
2022/01/29 04:45:21;;;;;;;;;15.00;15.00;;;;;7.96;76.42;102711.34;5036949;28;45349;-52
2022/01/29 04:47:47;;;;;;;;;11.00;9.75;;;;;7.88;76.42;102701.13;5054087;28;45385;-56
2022/01/29 04:50:12;;;;;;;;;12.00;12.00;;;;;7.89;76.25;102707.47;5056627;28;46161;-56
2022/01/29 04:52:38;;;;;;;;;11.00;10.75;;;;;7.81;76.25;102680.84;5056548;28;45468;-49
2022/01/29 04:55:04;;;;;;;;;15.00;10.75;;;;;7.86;76.66;102694.97;5055660;28;45421;-52
2022/01/29 04:57:29;;;;;;;;;9.75;9.75;;;;;7.91;76.37;102702.72;5056876;28;45388;-54
2022/01/29 04:59:55;;;;;;;;;10.75;10.75;;;;;7.92;76.78;102705.31;5056815;28;46221;-53
2022/01/29 05:02:21;;;;;;;;;12.25;12.25;;;;;7.95;76.67;102704.16;5056712;28;45434;-57
2022/01/29 05:04:46;;;;;;;;;13.00;10.00;;;;;7.93;77.12;102696.09;5024257;28;45661;-53
2022/01/29 05:07:12;;;;;;;;;15.75;14.00;;;;;7.95;76.25;102688.59;5055537;28;45502;-51
2022/01/29 05:09:37;;;;;;;;;14.25;11.25;;;;;7.80;76.63;102663.59;5055272;28;46057;-54
2022/01/29 05:12:03;;;;;;;;;10.75;9.00;;;;;8.00;76.55;102701.84;5056528;28;45321;-54
2022/01/29 05:27:48;;;;;;;;;16.20;8.80;;;;;8.03;76.52;102712.50;5056318;28;45443;-54
2022/01/29 05:30:14;;;;;;;;;17.75;15.00;;;;;7.41;76.54;102611.69;5055103;28;47262;-55
2022/01/29 05:32:39;;;;;;;;;13.50;11.25;;;;;8.05;77.13;102715.09;5055055;28;45423;-55
2022/01/29 05:35:05;;;;;;;;;17.00;15.00;;;;;8.00;77.08;102716.38;5056170;28;45357;-53
2022/01/29 05:37:30;;;;;;;;;16.75;13.25;;;;;7.97;77.22;102713.06;5054905;28;45474;-54
2022/01/29 05:39:56;;;;;;;;;15.00;12.00;;;;;7.97;76.86;102704.88;5056036;28;46456;-54
2022/01/29 05:42:21;;;;;;;;;17.50;12.00;;;;;8.04;77.14;102710.59;5056392;28;45354;-56
2022/01/29 05:44:47;;;;;;;;;14.00;11.00;;;;;8.03;77.60;102701.56;5056098;28;45433;-55
2022/01/29 05:47:13;;;;;;;;;13.00;10.25;;;;;7.88;77.46;102690.19;5043748;28;45390;-53
2022/01/29 05:49:38;;;;;;;;;21.50;17.00;;;;;7.99;77.24;102689.16;5034040;28;46518;-51
2022/01/29 05:52:04;;;;;;;;;12.75;10.75;;;;;7.97;77.31;102685.72;5034774;28;45389;-51
2022/01/29 05:54:29;;;;;;;;;17.00;12.50;;;;;8.05;77.17;102694.06;5036329;28;45226;-54
2022/01/29 05:56:56;;;;;;;;;12.00;10.25;;;;;8.00;77.52;102678.09;5034634;28;45552;-52
2022/01/29 05:59:21;;;;;;;;;15.20;12.40;;;;;7.92;77.06;102664.31;5035858;28;46366;-57
2022/01/29 06:01:47;;;;;;;;;13.00;11.00;;;;;8.05;77.65;102696.78;5035294;28;45339;-55
2022/01/29 06:04:12;;;;;;;;;9.50;7.75;;;;;8.08;77.63;102695.63;5035976;28;45305;-51
2022/01/29 06:06:38;;;;;;;;;16.00;15.00;;;;;8.09;77.79;102690.03;5032842;28;45437;-54
2022/01/29 06:09:04;;;;;;;;;15.25;12.00;;;;;8.05;77.64;102685.00;5044220;28;45454;-58
2022/01/29 06:11:33;;;;;;;;;14.60;14.00;;;;;8.04;77.81;102683.25;5053940;28;45507;-57
2022/01/29 06:13:59;;;;;;;;;15.40;15.20;;;;;8.10;77.85;102690.88;5053692;28;45370;-54
2022/01/29 06:16:25;;;;;;;;;15.00;11.20;;;;;8.11;77.87;102687.16;5038034;28;45406;-55
2022/01/29 06:18:50;;;;;;;;;10.50;10.00;;;;;8.03;78.02;102682.41;5054216;28;46052;-54
2022/01/29 06:21:16;;;;;;;;;11.50;9.50;;;;;7.96;77.82;102662.97;5054069;28;45312;-56
2022/01/29 06:23:42;;;;;;;;;14.75;10.75;;;;;8.14;77.85;102693.19;5054595;28;45346;-54
2022/01/29 06:26:09;;;;;;;;;16.00;14.80;;;;;8.11;77.72;102689.88;5054259;28;45604;-55
2022/01/29 06:28:35;;;;;;;;;14.00;11.20;;;;;8.14;78.06;102693.19;5055768;28;46588;-55
2022/01/29 06:31:01;;;;;;;;;12.00;10.75;;;;;8.12;77.72;102688.88;5055499;28;45306;-55
2022/01/29 06:33:26;;;;;;;;;12.20;11.00;;;;;8.19;78.18;102695.47;5054286;28;45439;-53
2022/01/29 06:35:52;;;;;;;;;16.75;12.75;;;;;8.14;77.24;102689.56;5055809;28;45385;-54
2022/01/29 06:38:18;;;;;;;;;13.80;13.80;;;;;7.96;78.21;102667.59;5054901;28;45431;-56
2022/01/29 06:40:43;;;;;;;;;10.75;8.00;;;;;8.13;78.35;102690.59;5053864;28;45342;-55
2022/01/29 06:43:09;;;;;;;;;11.25;11.00;;;;;8.11;78.29;102676.22;5055213;28;45291;-57
2022/01/29 06:45:39;;;;;;;;;11.50;10.75;;;;;8.18;78.33;102687.41;5054326;28;45305;-57
2022/01/29 06:48:05;;;;;;;;;10.40;9.60;;;;;8.23;77.65;102691.41;5020163;28;45894;-55
2022/01/29 06:50:34;;;;;;;;;9.00;9.00;;;;;8.21;78.03;102685.22;5016808;28;45354;-55
2022/01/29 06:53:00;;;;;;;;;4.40;4.20;;;;;8.16;77.67;102662.09;5033794;28;45430;-51
2022/01/29 06:55:25;;;;;;;;;8.25;7.75;;;;;8.26;77.89;102677.44;5017016;28;45316;-54
2022/01/29 06:57:51;;;;;;;;;10.00;7.25;;;;;8.26;78.54;102680.19;5033160;28;47891;-58
2022/01/29 07:00:16;;;;;;;;;10.25;9.25;;;;;8.28;77.79;102675.41;5032777;28;45407;-53
2022/01/29 07:02:42;;;;;;;;;8.75;8.50;;;;;8.32;77.48;102680.59;5034511;28;45342;-56
2022/01/29 07:05:09;;;;;;;;;10.00;9.75;;;;;8.36;77.49;102687.50;5034988;28;45358;-53
2022/01/29 07:07:34;;;;;;;;;7.60;7.60;;;;;8.32;77.97;102680.59;5033281;28;47704;-56
2022/01/29 07:10:00;;;;;;;;;7.75;7.75;;;;;8.26;76.98;102674.72;5034946;28;45401;-56
2022/01/29 07:12:26;;;;;;;;;7.50;7.50;;;;;8.17;77.60;102655.59;5034862;28;45337;-57
2022/01/29 07:14:51;;;;;;;;;8.50;8.50;;;;;8.28;77.55;102678.16;5033920;28;45413;-53
2022/01/29 07:17:17;;;;;;;;;11.25;8.50;;;;;8.13;77.69;102639.47;5033305;28;45856;-55
2022/01/29 07:19:46;;;;;;;;;13.00;13.00;;;;;8.34;77.69;102679.44;5033626;28;45491;-56
2022/01/29 07:22:11;;;;;;;;;11.80;8.20;;;;;8.41;77.38;102676.97;5034904;28;45279;-55
2022/01/29 07:24:37;;;;;;;;;11.75;10.00;;;;;8.39;77.92;102676.25;5034896;28;45371;-53
2022/01/29 07:27:03;;;;;;;;;7.25;6.25;;;;;8.36;77.79;102669.22;5032942;28;46072;-54
2022/01/29 07:29:29;;;;;;;;;10.00;7.00;;;;;8.41;77.67;102666.00;5034110;28;45388;-51
2022/01/29 07:31:56;;;;;;;;;12.00;8.75;;;;;8.44;77.91;102671.22;5034723;28;45399;-54
2022/01/29 07:34:22;;;;;;;;;10.60;10.20;;;;;8.45;77.92;102677.53;5037616;28;45768;-56
2022/01/29 07:36:47;;;;;;;;;7.80;7.80;;;;;8.48;77.53;102671.75;5037750;28;45854;-50
2022/01/29 07:39:13;;;;;;;;;10.50;8.00;;;;;8.48;77.44;102671.75;5037888;28;45400;-55
2022/01/29 07:41:38;;;;;;;;;11.25;6.25;;;;;8.26;77.33;102647.34;5038115;28;45359;-57
2022/01/29 07:44:04;;;;;;;;;9.00;6.00;;;;;8.30;77.43;102647.03;5038152;28;45467;-54
2022/01/29 07:46:30;;;;;;;;;7.00;7.00;;;;;8.54;78.06;102683.00;5040618;28;46098;-55
2022/01/29 07:48:56;;;;;;;;;6.00;6.00;;;;;8.57;78.16;102686.44;5058232;28;45379;-51
2022/01/29 07:51:21;;;;;;;;;7.50;6.50;;;;;8.54;77.04;102680.25;5037811;28;45931;-54
2022/01/29 07:53:47;;;;;;;;;7.25;6.75;;;;;8.57;77.65;102675.47;5031082;28;45325;-53
2022/01/29 07:56:12;;;;;;;;;5.50;5.25;;;;;8.40;77.36;102645.13;5036239;28;45695;-54
2022/01/29 07:58:38;;;;;;;;;11.50;9.00;;;;;8.60;77.95;102676.03;5035183;28;45939;-55
2022/01/29 08:01:03;;;;;;;;;10.75;8.50;;;;;8.58;78.10;102683.53;5038068;28;45457;-54
2022/01/29 08:03:29;;;;;;;;;6.00;5.25;;;;;8.49;78.09;102649.69;5038000;28;45360;-55
2022/01/29 08:05:55;;;;;;;;;5.50;5.00;;;;;8.62;77.59;102670.41;5037726;28;45722;-56
2022/01/29 08:08:20;;;;;;;;;7.00;4.50;;;;;8.60;78.16;102659.59;5037950;28;45540;-53
2022/01/29 08:10:46;;;;;;;;;5.00;5.00;;;;;8.67;77.94;102660.75;5037785;28;45498;-56
2022/01/29 08:13:11;;;;;;;;;5.25;5.25;;;;;8.73;78.27;102681.19;5038291;28;45304;-52
2022/01/29 08:15:37;;;;;;;;;1.75;1.75;;;;;8.74;78.39;102674.69;5037403;28;45937;-52
2022/01/29 08:18:03;;;;;;;;;5.75;3.00;;;;;8.76;78.00;102675.38;5036441;28;45330;-59
2022/01/29 08:20:29;;;;;;;;;3.80;3.80;;;;;8.75;77.33;102670.91;5037610;28;45376;-57
2022/01/29 08:22:54;;;;;;;;;2.75;2.75;;;;;8.75;77.51;102651.75;5036346;28;45564;-52
2022/01/29 08:25:20;;;;;;;;;2.75;2.75;;;;;8.82;77.82;102666.56;5037558;28;46608;-54
2022/01/29 08:27:46;;;;;;;;;2.75;2.75;;;;;8.83;77.41;102659.22;5019398;28;45381;-54
2022/01/29 08:30:12;;;;;;;;;3.50;3.00;;;;;8.81;77.59;102653.88;5037833;28;45298;-56
2022/01/29 08:32:41;;;;;;;;;4.20;4.20;;;;;8.67;77.95;102636.13;5037047;28;45689;-56
2022/01/29 08:35:10;;;;;;;;;5.20;2.80;;;;;8.82;77.23;102663.81;5036179;28;45524;-53
2022/01/29 08:37:36;;;;;;;;;3.40;2.40;;;;;8.91;77.72;102673.00;5037481;28;45378;-50
2022/01/29 08:40:03;;;;;;;;;2.00;2.00;;;;;8.91;78.69;102663.94;5037104;28;45307;-58
2022/01/29 08:42:28;;;;;;;;;7.80;5.60;;;;;8.76;77.93;102628.84;5019521;28;45288;-58
2022/01/29 08:44:53;;;;;;;;;6.75;6.75;;;;;9.09;77.73;102677.66;5035800;28;46033;-51
2022/01/29 08:47:19;;;;;;;;;6.00;5.00;;;;;9.16;78.07;102670.53;5043487;28;45418;-54
2022/01/29 08:49:45;;;;;;;;;2.25;2.25;;;;;9.17;77.63;102664.03;5056973;28;45424;-56
2022/01/29 08:52:10;;;;;;;;;1.75;1.75;;;;;9.03;77.14;102639.91;5055859;28;45332;-52
2022/01/29 08:54:36;;;;;;;;;2.25;2.00;;;;;9.19;77.83;102659.25;5056820;28;46149;-54
2022/01/29 08:57:01;;;;;;;;;3.50;2.25;;;;;9.25;76.74;102654.16;5056687;28;45305;-55
2022/01/29 08:59:27;;;;;;;;;7.00;4.75;;;;;9.29;77.08;102656.44;5056437;28;45337;-57
2022/01/29 09:01:52;;;;;;;;;2.50;2.50;;;;;9.31;76.73;102657.16;5057329;28;45594;-55
2022/01/29 09:04:18;;;;;;;;;1.25;1.25;;;;;9.33;77.08;102654.25;5056800;28;46724;-52
2022/01/29 09:06:43;;;;;;;;;5.25;4.00;;;;;9.35;76.74;102658.56;5056590;28;45368;-50
2022/01/29 09:09:09;;;;;;;;;3.25;3.00;;;;;9.41;76.77;102653.47;5056400;28;45277;-58
2022/01/29 09:11:35;;;;;;;;;2.60;1.20;;;;;9.39;77.02;102647.28;5055712;28;45186;-57
2022/01/29 09:14:00;;;;;;;;;3.00;3.00;;;;;9.45;76.19;102657.63;5025280;28;47468;-54
2022/01/29 09:16:26;;;;;;;;;1.25;1.25;;;;;9.24;76.79;102612.22;5045273;28;45974;-58
2022/01/29 09:18:51;;;;;;;;;3.00;2.00;;;;;9.53;76.27;102659.56;5056933;28;45432;-58
2022/01/29 09:21:17;;;;;;;;;2.00;2.00;;;;;9.60;75.89;102657.91;5056837;28;45639;-54
2022/01/29 09:23:42;;;;;;;;;2.00;2.00;;;;;9.65;75.61;102657.44;5056684;28;45366;-58
2022/01/29 09:26:08;;;;;;;;;3.00;2.00;;;;;9.67;76.10;102638.94;5054632;28;45342;-57
2022/01/29 09:28:33;;;;;;;;;2.00;1.75;;;;;9.75;75.94;102653.59;4995859;28;45387;-56
2022/01/29 09:30:59;;;;;;;;;5.50;4.00;;;;;9.79;75.94;102656.88;5055377;28;45460;-54
2022/01/29 09:33:24;;;;;;;;;2.00;2.00;;;;;9.79;75.55;102656.00;5056134;28;45470;-55
2022/01/29 09:35:51;;;;;;;;;2.25;2.25;;;;;9.82;75.43;102645.56;5051449;28;46039;-55
2022/01/29 09:38:17;;;;;;;;;2.40;1.60;;;;;9.85;76.12;102645.25;5064146;27;45976;-57
2022/01/29 09:40:42;;;;;;;;;3.00;2.00;;;;;9.79;75.65;102629.44;5032576;28;45473;-61
2022/01/29 09:43:09;;;;;;;;;3.25;2.00;;;;;9.72;75.21;102617.41;5047896;28;45405;-56
2022/01/29 09:45:35;;;;;;;;;7.80;3.80;;;;;9.79;75.32;102634.06;5050201;28;45404;-53
2022/01/29 09:48:04;;;;;;;;;3.00;2.00;;;;;9.81;75.81;102640.28;5052169;28;45524;-58
2022/01/29 09:50:31;;;;;;;;;2.00;2.00;;;;;9.62;75.48;102601.91;5051620;28;45513;-58
2022/01/29 09:52:57;;;;;;;;;2.60;2.00;;;;;9.88;75.43;102642.19;5050441;28;45385;-58
2022/01/29 09:55:23;;;;;;;;;2.40;2.40;;;;;9.90;75.08;102642.03;5049985;28;45772;-58
2022/01/29 09:57:48;;;;;;;;;1.75;1.75;;;;;9.90;75.64;102640.16;5033333;28;45457;-56
2022/01/29 10:00:14;;;;;;;;;2.00;2.00;;;;;9.75;75.35;102619.81;5050991;28;45657;-57
2022/01/29 10:02:40;;;;;;;;;1.60;1.60;;;;;9.93;74.77;102647.19;5051379;28;46283;-58
2022/01/29 10:05:07;;;;;;;;;2.00;2.00;;;;;9.92;75.32;102652.84;5050333;28;45393;-51
2022/01/29 10:07:33;;;;;;;;;7.00;4.00;;;;;9.93;75.21;102649.94;5032450;28;45401;-55
2022/01/29 10:10:00;;;;;;;;;3.00;3.00;;;;;9.87;76.45;102656.94;5052097;28;45601;-61
2022/01/29 10:12:30;;;;;;;;;2.40;2.40;;;;;9.89;76.13;102665.84;5051288;28;46993;-61
2022/01/29 10:15:01;;;;;;;;;3.40;3.40;;;;;9.50;75.63;102586.72;5021385;28;45883;-58
2022/01/29 10:17:46;;;;;;;;;3.00;3.00;;;;;9.87;75.93;102651.44;5051371;28;45474;-60
2022/01/29 10:20:26;;;;;;;;;2.40;2.40;;;;;9.75;76.25;102658.19;5031748;28;45511;-54
2022/01/29 10:23:01;;;;;;;;;2.60;2.60;;;;;9.67;79.12;102656.28;5013348;28;47268;-58
2022/01/29 10:25:33;;;;;;;;;3.00;3.00;;;;;9.75;77.65;102663.69;5063451;28;45416;-58
2022/01/29 10:28:18;;;;;;;;;2.60;2.40;;;;;9.65;77.76;102654.72;5031251;28;45768;-58
2022/01/29 10:30:50;;;;;;;;;2.40;2.40;;;;;9.73;77.73;102663.00;5037582;28;45602;-56
2022/01/29 10:33:19;;;;;;;;;3.20;3.20;;;;;9.75;76.33;102660.94;5051265;28;45555;-59
2022/01/29 10:35:46;;;;;;;;;4.20;3.00;;;;;9.72;77.07;102631.97;5049586;28;45464;-60
2022/01/29 10:38:11;;;;;;;;;2.00;2.00;;;;;9.73;75.93;102624.59;5041416;28;45427;-58
2022/01/29 10:40:38;;;;;;;;;2.00;2.00;;;;;9.75;76.06;102622.56;5051494;28;45492;-59
2022/01/29 10:43:05;;;;;;;;;2.00;2.00;;;;;9.97;75.57;102645.00;5049635;28;46659;-57
2022/01/29 10:45:34;;;;;;;;;1.00;1.00;;;;;9.98;76.50;102646.72;5051290;28;45479;-58
2022/01/29 10:47:59;;;;;;;;;7.00;2.60;;;;;9.98;75.98;102647.56;5049209;28;46031;-60
2022/01/29 10:50:25;;;;;;;;;2.00;2.00;;;;;9.84;75.78;102615.25;5051244;28;45447;-57
2022/01/29 10:52:51;;;;;;;;;3.00;3.00;;;;;9.50;75.85;102545.59;5049627;28;47349;-58
2022/01/29 10:55:17;;;;;;;;;3.00;3.00;;;;;10.16;75.46;102655.72;5050021;28;45389;-56
2022/01/29 10:57:44;;;;;;;;;3.75;2.25;;;;;9.90;74.97;102614.59;5051027;28;45394;-56
2022/01/29 11:00:21;;;;;;;;;1.00;1.00;;;;;10.08;75.06;102647.47;5050051;28;45517;-55
2022/01/29 11:02:47;;;;;;;;;2.40;2.40;;;;;9.69;75.39;102573.84;5050869;28;45854;-57
2022/01/29 11:05:14;;;;;;;;;3.20;2.00;;;;;10.04;75.46;102626.88;5049731;28;45443;-60
2022/01/29 11:07:41;;;;;;;;;2.80;1.40;;;;;10.15;74.98;102645.78;5048778;28;45543;-57
2022/01/29 11:10:07;;;;;;;;;2.00;2.00;;;;;10.18;74.45;102652.84;5051434;28;45646;-58
2022/01/29 11:12:33;;;;;;;;;3.00;3.00;;;;;10.20;75.31;102647.19;5049667;28;45397;-59
2022/01/29 11:14:59;;;;;;;;;2.00;2.00;;;;;10.23;74.55;102644.97;5030073;28;45436;-60
2022/01/29 11:17:31;;;;;;;;;2.00;2.00;;;;;10.22;74.43;102642.41;5049570;28;45667;-58
2022/01/29 11:19:57;;;;;;;;;3.60;2.20;;;;;10.27;75.26;102651.00;5050182;28;45471;-57
2022/01/29 11:22:27;;;;;;;;;4.50;1.75;;;;;10.14;74.23;102630.34;5083349;27;45473;-57
2022/01/29 11:25:00;;;;;;;;;1.00;1.00;;;;;10.09;74.64;102627.22;5049562;28;45467;-58
2022/01/29 11:27:27;;;;;;;;;1.00;1.00;;;;;10.25;75.36;102659.41;5032607;28;45881;-59
2022/01/29 11:29:57;;;;;;;;;1.60;1.60;;;;;10.22;74.88;102653.38;5051276;28;45507;-61
2022/01/29 11:32:26;;;;;;;;;1.20;1.00;;;;;10.19;76.16;102656.44;5047751;28;46880;-60
2022/01/29 11:35:17;;;;;;;;;0.20;0.20;;;;;10.21;75.88;102651.66;5050577;28;45385;-59